sensor_id;sensor_type;location;lat;lon;timestamp;P1;durP1;ratioP1;P2;durP2;ratioP2
16531;SDS011;66872;63.142;14.482;2023-08-06T00:00:04;1.37;;;1.27;;
16531;SDS011;66872;63.142;14.482;2023-08-06T00:02:30;1.20;;;1.10;;
16531;SDS011;66872;63.142;14.482;2023-08-06T00:04:56;1.10;;;1.00;;
16531;SDS011;66872;63.142;14.482;2023-08-06T00:07:22;1.30;;;1.20;;
16531;SDS011;66872;63.142;14.482;2023-08-06T00:09:47;1.30;;;1.20;;
16531;SDS011;66872;63.142;14.482;2023-08-06T00:12:13;1.30;;;1.20;;
16531;SDS011;66872;63.142;14.482;2023-08-06T00:14:39;1.27;;;1.17;;
16531;SDS011;66872;63.142;14.482;2023-08-06T00:17:05;1.80;;;1.30;;
16531;SDS011;66872;63.142;14.482;2023-08-06T00:19:31;1.83;;;1.30;;
16531;SDS011;66872;63.142;14.482;2023-08-06T00:21:57;1.37;;;1.20;;
16531;SDS011;66872;63.142;14.482;2023-08-06T00:24:23;1.30;;;1.20;;
16531;SDS011;66872;63.142;14.482;2023-08-06T00:26:49;1.20;;;1.10;;
16531;SDS011;66872;63.142;14.482;2023-08-06T00:29:14;1.30;;;1.10;;
16531;SDS011;66872;63.142;14.482;2023-08-06T00:31:40;1.20;;;1.10;;
16531;SDS011;66872;63.142;14.482;2023-08-06T00:34:06;1.30;;;1.20;;
16531;SDS011;66872;63.142;14.482;2023-08-06T00:36:31;1.47;;;1.37;;
16531;SDS011;66872;63.142;14.482;2023-08-06T00:38:57;1.50;;;1.40;;
16531;SDS011;66872;63.142;14.482;2023-08-06T00:41:22;1.50;;;1.40;;
16531;SDS011;66872;63.142;14.482;2023-08-06T00:43:48;2.17;;;1.23;;
16531;SDS011;66872;63.142;14.482;2023-08-06T00:46:14;1.40;;;1.30;;
16531;SDS011;66872;63.142;14.482;2023-08-06T00:48:40;1.47;;;1.37;;
16531;SDS011;66872;63.142;14.482;2023-08-06T00:51:06;1.40;;;1.30;;
16531;SDS011;66872;63.142;14.482;2023-08-06T00:53:34;1.57;;;1.37;;
16531;SDS011;66872;63.142;14.482;2023-08-06T00:55:59;1.93;;;1.20;;
16531;SDS011;66872;63.142;14.482;2023-08-06T00:58:26;1.50;;;1.40;;
16531;SDS011;66872;63.142;14.482;2023-08-06T01:00:51;1.50;;;1.40;;
16531;SDS011;66872;63.142;14.482;2023-08-06T01:03:17;1.30;;;1.20;;
16531;SDS011;66872;63.142;14.482;2023-08-06T01:05:43;1.90;;;1.17;;
16531;SDS011;66872;63.142;14.482;2023-08-06T01:13:32;1.20;;;1.10;;
16531;SDS011;66872;63.142;14.482;2023-08-06T01:16:06;1.23;;;1.13;;
16531;SDS011;66872;63.142;14.482;2023-08-06T01:18:34;1.40;;;1.30;;
16531;SDS011;66872;63.142;14.482;2023-08-06T01:21:00;1.30;;;1.20;;
16531;SDS011;66872;63.142;14.482;2023-08-06T01:23:26;1.23;;;1.13;;
16531;SDS011;66872;63.142;14.482;2023-08-06T01:28:48;1.30;;;1.20;;
16531;SDS011;66872;63.142;14.482;2023-08-06T01:31:26;1.30;;;1.20;;
16531;SDS011;66872;63.142;14.482;2023-08-06T01:33:56;1.30;;;1.20;;
16531;SDS011;66872;63.142;14.482;2023-08-06T01:36:23;1.60;;;1.40;;
16531;SDS011;66872;63.142;14.482;2023-08-06T01:38:51;2.13;;;1.30;;
16531;SDS011;66872;63.142;14.482;2023-08-06T01:41:18;1.30;;;1.20;;
16531;SDS011;66872;63.142;14.482;2023-08-06T01:43:43;1.37;;;1.27;;
16531;SDS011;66872;63.142;14.482;2023-08-06T01:46:09;1.40;;;1.30;;
16531;SDS011;66872;63.142;14.482;2023-08-06T01:48:35;1.37;;;1.27;;
16531;SDS011;66872;63.142;14.482;2023-08-06T01:51:01;1.37;;;1.27;;
16531;SDS011;66872;63.142;14.482;2023-08-06T01:53:29;1.87;;;1.30;;
16531;SDS011;66872;63.142;14.482;2023-08-06T01:55:54;1.20;;;1.10;;
16531;SDS011;66872;63.142;14.482;2023-08-06T01:58:20;1.40;;;1.30;;
16531;SDS011;66872;63.142;14.482;2023-08-06T02:00:45;1.30;;;1.20;;
16531;SDS011;66872;63.142;14.482;2023-08-06T02:03:11;1.33;;;1.23;;
16531;SDS011;66872;63.142;14.482;2023-08-06T02:05:37;1.30;;;1.20;;
16531;SDS011;66872;63.142;14.482;2023-08-06T02:08:02;1.33;;;1.20;;
16531;SDS011;66872;63.142;14.482;2023-08-06T02:10:28;1.20;;;1.10;;
16531;SDS011;66872;63.142;14.482;2023-08-06T02:12:54;1.40;;;1.30;;
16531;SDS011;66872;63.142;14.482;2023-08-06T02:15:19;1.40;;;1.30;;
16531;SDS011;66872;63.142;14.482;2023-08-06T02:17:45;1.13;;;1.03;;
16531;SDS011;66872;63.142;14.482;2023-08-06T02:20:11;1.40;;;1.30;;
16531;SDS011;66872;63.142;14.482;2023-08-06T02:22:36;1.30;;;1.20;;
16531;SDS011;66872;63.142;14.482;2023-08-06T02:25:02;1.17;;;1.10;;
16531;SDS011;66872;63.142;14.482;2023-08-06T02:27:28;1.40;;;1.30;;
16531;SDS011;66872;63.142;14.482;2023-08-06T02:29:53;1.77;;;1.57;;
16531;SDS011;66872;63.142;14.482;2023-08-06T02:32:19;1.40;;;1.30;;
16531;SDS011;66872;63.142;14.482;2023-08-06T02:34:45;1.43;;;1.30;;
16531;SDS011;66872;63.142;14.482;2023-08-06T02:37:10;1.50;;;1.40;;
16531;SDS011;66872;63.142;14.482;2023-08-06T02:39:36;1.40;;;1.30;;
16531;SDS011;66872;63.142;14.482;2023-08-06T02:42:04;1.37;;;1.27;;
16531;SDS011;66872;63.142;14.482;2023-08-06T02:44:34;1.33;;;1.23;;
16531;SDS011;66872;63.142;14.482;2023-08-06T02:47:00;1.00;;;1.00;;
16531;SDS011;66872;63.142;14.482;2023-08-06T02:49:26;1.40;;;1.30;;
16531;SDS011;66872;63.142;14.482;2023-08-06T02:51:51;1.20;;;1.10;;
16531;SDS011;66872;63.142;14.482;2023-08-06T02:54:20;1.60;;;1.30;;
16531;SDS011;66872;63.142;14.482;2023-08-06T02:56:46;1.20;;;1.10;;
16531;SDS011;66872;63.142;14.482;2023-08-06T02:59:12;1.67;;;1.13;;
16531;SDS011;66872;63.142;14.482;2023-08-06T03:01:38;1.33;;;1.20;;
16531;SDS011;66872;63.142;14.482;2023-08-06T03:04:04;1.37;;;1.20;;
16531;SDS011;66872;63.142;14.482;2023-08-06T03:06:30;1.30;;;1.20;;
16531;SDS011;66872;63.142;14.482;2023-08-06T03:08:55;1.40;;;1.30;;
16531;SDS011;66872;63.142;14.482;2023-08-06T03:11:21;1.10;;;1.00;;
16531;SDS011;66872;63.142;14.482;2023-08-06T03:13:47;1.30;;;1.20;;
16531;SDS011;66872;63.142;14.482;2023-08-06T03:16:13;1.20;;;1.10;;
16531;SDS011;66872;63.142;14.482;2023-08-06T03:18:39;1.70;;;1.40;;
16531;SDS011;66872;63.142;14.482;2023-08-06T03:21:05;1.50;;;1.40;;
16531;SDS011;66872;63.142;14.482;2023-08-06T03:23:30;1.40;;;1.20;;
16531;SDS011;66872;63.142;14.482;2023-08-06T03:25:56;1.40;;;1.30;;
16531;SDS011;66872;63.142;14.482;2023-08-06T03:28:26;1.43;;;1.30;;
16531;SDS011;66872;63.142;14.482;2023-08-06T03:31:01;1.40;;;1.30;;
16531;SDS011;66872;63.142;14.482;2023-08-06T03:33:28;3.17;;;1.23;;
16531;SDS011;66872;63.142;14.482;2023-08-06T03:35:54;1.90;;;1.30;;
16531;SDS011;66872;63.142;14.482;2023-08-06T03:38:20;1.30;;;1.20;;
16531;SDS011;66872;63.142;14.482;2023-08-06T03:40:46;1.40;;;1.30;;
16531;SDS011;66872;63.142;14.482;2023-08-06T03:43:12;1.40;;;1.30;;
16531;SDS011;66872;63.142;14.482;2023-08-06T03:45:37;1.40;;;1.30;;
16531;SDS011;66872;63.142;14.482;2023-08-06T03:48:03;1.40;;;1.30;;
16531;SDS011;66872;63.142;14.482;2023-08-06T03:50:29;1.23;;;1.13;;
16531;SDS011;66872;63.142;14.482;2023-08-06T03:52:55;1.37;;;1.27;;
16531;SDS011;66872;63.142;14.482;2023-08-06T03:55:20;1.40;;;1.30;;
16531;SDS011;66872;63.142;14.482;2023-08-06T03:57:46;1.30;;;1.20;;
16531;SDS011;66872;63.142;14.482;2023-08-06T04:00:12;1.40;;;1.30;;
16531;SDS011;66872;63.142;14.482;2023-08-06T04:02:38;1.40;;;1.30;;
16531;SDS011;66872;63.142;14.482;2023-08-06T04:05:04;1.30;;;1.20;;
16531;SDS011;66872;63.142;14.482;2023-08-06T04:07:30;1.20;;;1.10;;
16531;SDS011;66872;63.142;14.482;2023-08-06T04:09:59;1.40;;;1.30;;
16531;SDS011;66872;63.142;14.482;2023-08-06T04:12:27;1.40;;;1.30;;
16531;SDS011;66872;63.142;14.482;2023-08-06T04:14:53;1.30;;;1.20;;
16531;SDS011;66872;63.142;14.482;2023-08-06T04:17:20;1.20;;;1.10;;
16531;SDS011;66872;63.142;14.482;2023-08-06T04:19:53;1.40;;;1.30;;
16531;SDS011;66872;63.142;14.482;2023-08-06T04:22:19;1.30;;;1.20;;
16531;SDS011;66872;63.142;14.482;2023-08-06T04:24:46;1.30;;;1.20;;
16531;SDS011;66872;63.142;14.482;2023-08-06T04:27:13;1.17;;;1.07;;
16531;SDS011;66872;63.142;14.482;2023-08-06T04:29:40;1.40;;;1.30;;
16531;SDS011;66872;63.142;14.482;2023-08-06T04:32:07;1.40;;;1.30;;
16531;SDS011;66872;63.142;14.482;2023-08-06T04:34:34;1.40;;;1.20;;
16531;SDS011;66872;63.142;14.482;2023-08-06T04:37:01;1.00;;;1.00;;
16531;SDS011;66872;63.142;14.482;2023-08-06T04:39:27;1.33;;;1.23;;
16531;SDS011;66872;63.142;14.482;2023-08-06T04:41:53;1.40;;;1.30;;
16531;SDS011;66872;63.142;14.482;2023-08-06T04:44:18;1.70;;;1.20;;
16531;SDS011;66872;63.142;14.482;2023-08-06T04:46:44;1.47;;;1.37;;
16531;SDS011;66872;63.142;14.482;2023-08-06T04:49:10;1.20;;;1.10;;
16531;SDS011;66872;63.142;14.482;2023-08-06T04:51:35;1.23;;;1.13;;
16531;SDS011;66872;63.142;14.482;2023-08-06T04:54:01;2.33;;;1.40;;
16531;SDS011;66872;63.142;14.482;2023-08-06T04:56:27;1.30;;;1.20;;
16531;SDS011;66872;63.142;14.482;2023-08-06T04:58:52;1.40;;;1.30;;
16531;SDS011;66872;63.142;14.482;2023-08-06T05:01:18;1.33;;;1.23;;
16531;SDS011;66872;63.142;14.482;2023-08-06T05:03:44;1.40;;;1.30;;
16531;SDS011;66872;63.142;14.482;2023-08-06T05:06:09;1.40;;;1.30;;
16531;SDS011;66872;63.142;14.482;2023-08-06T05:08:35;1.30;;;1.20;;
16531;SDS011;66872;63.142;14.482;2023-08-06T05:11:01;1.20;;;1.10;;
16531;SDS011;66872;63.142;14.482;2023-08-06T05:13:27;1.23;;;1.13;;
16531;SDS011;66872;63.142;14.482;2023-08-06T05:15:53;1.30;;;1.20;;
16531;SDS011;66872;63.142;14.482;2023-08-06T05:18:19;1.20;;;1.10;;
16531;SDS011;66872;63.142;14.482;2023-08-06T05:20:45;1.37;;;1.27;;
16531;SDS011;66872;63.142;14.482;2023-08-06T05:23:11;1.40;;;1.30;;
16531;SDS011;66872;63.142;14.482;2023-08-06T05:25:37;1.50;;;1.40;;
16531;SDS011;66872;63.142;14.482;2023-08-06T05:28:03;1.30;;;1.20;;
16531;SDS011;66872;63.142;14.482;2023-08-06T05:30:29;1.40;;;1.30;;
16531;SDS011;66872;63.142;14.482;2023-08-06T05:32:55;1.30;;;1.20;;
16531;SDS011;66872;63.142;14.482;2023-08-06T05:35:21;1.30;;;1.20;;
16531;SDS011;66872;63.142;14.482;2023-08-06T05:37:47;1.40;;;1.30;;
16531;SDS011;66872;63.142;14.482;2023-08-06T05:40:14;1.40;;;1.30;;
16531;SDS011;66872;63.142;14.482;2023-08-06T05:42:40;1.37;;;1.27;;
16531;SDS011;66872;63.142;14.482;2023-08-06T05:45:06;1.30;;;1.20;;
16531;SDS011;66872;63.142;14.482;2023-08-06T05:47:32;1.57;;;1.47;;
16531;SDS011;66872;63.142;14.482;2023-08-06T05:49:58;1.33;;;1.23;;
16531;SDS011;66872;63.142;14.482;2023-08-06T05:52:24;2.10;;;1.30;;
16531;SDS011;66872;63.142;14.482;2023-08-06T05:54:49;1.40;;;1.30;;
16531;SDS011;66872;63.142;14.482;2023-08-06T05:57:15;1.63;;;1.30;;
16531;SDS011;66872;63.142;14.482;2023-08-06T05:59:41;1.30;;;1.20;;
16531;SDS011;66872;63.142;14.482;2023-08-06T06:02:07;1.40;;;1.30;;
16531;SDS011;66872;63.142;14.482;2023-08-06T06:04:33;1.37;;;1.27;;
16531;SDS011;66872;63.142;14.482;2023-08-06T06:06:59;1.30;;;1.20;;
16531;SDS011;66872;63.142;14.482;2023-08-06T06:09:24;1.40;;;1.30;;
16531;SDS011;66872;63.142;14.482;2023-08-06T06:11:50;1.30;;;1.20;;
16531;SDS011;66872;63.142;14.482;2023-08-06T06:14:16;1.40;;;1.30;;
16531;SDS011;66872;63.142;14.482;2023-08-06T06:16:43;1.30;;;1.20;;
16531;SDS011;66872;63.142;14.482;2023-08-06T06:19:08;1.30;;;1.20;;
16531;SDS011;66872;63.142;14.482;2023-08-06T06:21:34;1.40;;;1.30;;
16531;SDS011;66872;63.142;14.482;2023-08-06T06:23:59;1.40;;;1.30;;
16531;SDS011;66872;63.142;14.482;2023-08-06T06:26:25;1.40;;;1.30;;
16531;SDS011;66872;63.142;14.482;2023-08-06T06:28:51;1.60;;;1.47;;
16531;SDS011;66872;63.142;14.482;2023-08-06T06:31:16;1.60;;;1.50;;
16531;SDS011;66872;63.142;14.482;2023-08-06T06:33:42;1.40;;;1.23;;
16531;SDS011;66872;63.142;14.482;2023-08-06T06:36:08;1.30;;;1.20;;
16531;SDS011;66872;63.142;14.482;2023-08-06T06:38:34;1.30;;;1.20;;
16531;SDS011;66872;63.142;14.482;2023-08-06T06:41:00;1.57;;;1.47;;
16531;SDS011;66872;63.142;14.482;2023-08-06T06:43:28;1.57;;;1.47;;
16531;SDS011;66872;63.142;14.482;2023-08-06T06:45:56;1.40;;;1.30;;
16531;SDS011;66872;63.142;14.482;2023-08-06T06:48:23;1.30;;;1.20;;
16531;SDS011;66872;63.142;14.482;2023-08-06T06:50:50;2.50;;;1.30;;
16531;SDS011;66872;63.142;14.482;2023-08-06T06:53:16;1.50;;;1.40;;
16531;SDS011;66872;63.142;14.482;2023-08-06T06:55:41;1.50;;;1.40;;
16531;SDS011;66872;63.142;14.482;2023-08-06T06:58:07;1.53;;;1.43;;
16531;SDS011;66872;63.142;14.482;2023-08-06T07:00:35;1.30;;;1.20;;
16531;SDS011;66872;63.142;14.482;2023-08-06T07:03:02;1.40;;;1.30;;
16531;SDS011;66872;63.142;14.482;2023-08-06T07:05:27;1.50;;;1.40;;
16531;SDS011;66872;63.142;14.482;2023-08-06T07:07:53;1.60;;;1.50;;
16531;SDS011;66872;63.142;14.482;2023-08-06T07:10:19;1.60;;;1.50;;
16531;SDS011;66872;63.142;14.482;2023-08-06T07:12:44;1.30;;;1.20;;
16531;SDS011;66872;63.142;14.482;2023-08-06T07:15:10;1.53;;;1.43;;
16531;SDS011;66872;63.142;14.482;2023-08-06T07:17:36;1.60;;;1.27;;
16531;SDS011;66872;63.142;14.482;2023-08-06T07:20:02;1.40;;;1.30;;
16531;SDS011;66872;63.142;14.482;2023-08-06T07:22:29;1.50;;;1.40;;
16531;SDS011;66872;63.142;14.482;2023-08-06T07:24:54;1.30;;;1.20;;
16531;SDS011;66872;63.142;14.482;2023-08-06T07:27:20;1.40;;;1.30;;
16531;SDS011;66872;63.142;14.482;2023-08-06T07:29:46;1.40;;;1.30;;
16531;SDS011;66872;63.142;14.482;2023-08-06T07:32:13;1.50;;;1.40;;
16531;SDS011;66872;63.142;14.482;2023-08-06T07:34:38;1.50;;;1.40;;
16531;SDS011;66872;63.142;14.482;2023-08-06T07:37:04;1.40;;;1.30;;
16531;SDS011;66872;63.142;14.482;2023-08-06T07:39:30;1.33;;;1.23;;
16531;SDS011;66872;63.142;14.482;2023-08-06T07:41:56;1.60;;;1.43;;
16531;SDS011;66872;63.142;14.482;2023-08-06T07:44:22;1.57;;;1.47;;
16531;SDS011;66872;63.142;14.482;2023-08-06T07:46:48;2.60;;;1.60;;
16531;SDS011;66872;63.142;14.482;2023-08-06T07:49:14;1.30;;;1.20;;
16531;SDS011;66872;63.142;14.482;2023-08-06T07:51:40;1.97;;;1.50;;
16531;SDS011;66872;63.142;14.482;2023-08-06T07:54:06;1.60;;;1.50;;
16531;SDS011;66872;63.142;14.482;2023-08-06T07:56:32;2.23;;;1.33;;
16531;SDS011;66872;63.142;14.482;2023-08-06T07:58:57;1.30;;;1.20;;
16531;SDS011;66872;63.142;14.482;2023-08-06T08:01:23;1.60;;;1.50;;
16531;SDS011;66872;63.142;14.482;2023-08-06T08:03:49;1.50;;;1.40;;
16531;SDS011;66872;63.142;14.482;2023-08-06T08:06:14;1.67;;;1.57;;
16531;SDS011;66872;63.142;14.482;2023-08-06T08:08:40;1.57;;;1.47;;
16531;SDS011;66872;63.142;14.482;2023-08-06T08:11:06;1.60;;;1.50;;
16531;SDS011;66872;63.142;14.482;2023-08-06T08:13:32;1.70;;;1.40;;
16531;SDS011;66872;63.142;14.482;2023-08-06T08:15:58;1.60;;;1.40;;
16531;SDS011;66872;63.142;14.482;2023-08-06T08:18:24;1.40;;;1.13;;
16531;SDS011;66872;63.142;14.482;2023-08-06T08:20:50;1.53;;;1.43;;
16531;SDS011;66872;63.142;14.482;2023-08-06T08:23:16;1.50;;;1.40;;
16531;SDS011;66872;63.142;14.482;2023-08-06T08:25:42;1.70;;;1.60;;
16531;SDS011;66872;63.142;14.482;2023-08-06T08:28:07;1.73;;;1.40;;
16531;SDS011;66872;63.142;14.482;2023-08-06T08:30:33;1.60;;;1.50;;
16531;SDS011;66872;63.142;14.482;2023-08-06T08:32:59;1.30;;;1.20;;
16531;SDS011;66872;63.142;14.482;2023-08-06T08:35:24;1.50;;;1.40;;
16531;SDS011;66872;63.142;14.482;2023-08-06T08:37:50;1.40;;;1.30;;
16531;SDS011;66872;63.142;14.482;2023-08-06T08:40:16;2.07;;;1.30;;
16531;SDS011;66872;63.142;14.482;2023-08-06T08:42:42;1.50;;;1.40;;
16531;SDS011;66872;63.142;14.482;2023-08-06T08:45:12;1.50;;;1.40;;
16531;SDS011;66872;63.142;14.482;2023-08-06T08:47:42;2.00;;;1.80;;
16531;SDS011;66872;63.142;14.482;2023-08-06T08:50:08;1.73;;;1.60;;
16531;SDS011;66872;63.142;14.482;2023-08-06T08:52:39;1.53;;;1.43;;
16531;SDS011;66872;63.142;14.482;2023-08-06T08:55:06;1.90;;;1.70;;
16531;SDS011;66872;63.142;14.482;2023-08-06T08:57:32;1.93;;;1.80;;
16531;SDS011;66872;63.142;14.482;2023-08-06T08:59:58;1.47;;;1.37;;
16531;SDS011;66872;63.142;14.482;2023-08-06T09:02:24;1.50;;;1.40;;
16531;SDS011;66872;63.142;14.482;2023-08-06T09:04:53;1.90;;;1.37;;
16531;SDS011;66872;63.142;14.482;2023-08-06T09:07:20;1.83;;;1.63;;
16531;SDS011;66872;63.142;14.482;2023-08-06T09:09:48;1.50;;;1.40;;
16531;SDS011;66872;63.142;14.482;2023-08-06T09:12:15;1.80;;;1.70;;
16531;SDS011;66872;63.142;14.482;2023-08-06T09:14:41;1.57;;;1.47;;
16531;SDS011;66872;63.142;14.482;2023-08-06T09:17:07;1.50;;;1.40;;
16531;SDS011;66872;63.142;14.482;2023-08-06T09:19:35;1.83;;;1.37;;
16531;SDS011;66872;63.142;14.482;2023-08-06T09:22:01;1.40;;;1.30;;
16531;SDS011;66872;63.142;14.482;2023-08-06T09:24:27;1.60;;;1.50;;
16531;SDS011;66872;63.142;14.482;2023-08-06T09:26:53;1.57;;;1.47;;
16531;SDS011;66872;63.142;14.482;2023-08-06T09:29:19;1.50;;;1.37;;
16531;SDS011;66872;63.142;14.482;2023-08-06T09:31:46;1.60;;;1.50;;
16531;SDS011;66872;63.142;14.482;2023-08-06T09:34:20;1.50;;;1.40;;
16531;SDS011;66872;63.142;14.482;2023-08-06T09:36:56;1.50;;;1.40;;
16531;SDS011;66872;63.142;14.482;2023-08-06T09:39:30;1.40;;;1.27;;
16531;SDS011;66872;63.142;14.482;2023-08-06T09:42:00;1.88;;;1.48;;
16531;SDS011;66872;63.142;14.482;2023-08-06T09:44:27;1.20;;;1.10;;
16531;SDS011;66872;63.142;14.482;2023-08-06T09:46:57;1.20;;;1.10;;
16531;SDS011;66872;63.142;14.482;2023-08-06T09:49:28;1.60;;;1.50;;
16531;SDS011;66872;63.142;14.482;2023-08-06T09:51:54;1.93;;;1.50;;
16531;SDS011;66872;63.142;14.482;2023-08-06T09:54:23;1.30;;;1.20;;
16531;SDS011;66872;63.142;14.482;2023-08-06T09:56:49;1.60;;;1.50;;
16531;SDS011;66872;63.142;14.482;2023-08-06T09:59:16;1.43;;;1.33;;
16531;SDS011;66872;63.142;14.482;2023-08-06T10:01:43;2.70;;;1.60;;
16531;SDS011;66872;63.142;14.482;2023-08-06T10:04:10;2.23;;;1.70;;
16531;SDS011;66872;63.142;14.482;2023-08-06T10:06:37;1.97;;;1.60;;
16531;SDS011;66872;63.142;14.482;2023-08-06T10:09:03;4.03;;;1.60;;
16531;SDS011;66872;63.142;14.482;2023-08-06T10:11:30;2.93;;;1.80;;
16531;SDS011;66872;63.142;14.482;2023-08-06T10:14:10;1.90;;;1.70;;
16531;SDS011;66872;63.142;14.482;2023-08-06T10:16:38;4.03;;;1.80;;
16531;SDS011;66872;63.142;14.482;2023-08-06T10:19:05;2.33;;;1.60;;
16531;SDS011;66872;63.142;14.482;2023-08-06T10:21:34;2.83;;;1.63;;
16531;SDS011;66872;63.142;14.482;2023-08-06T10:24:00;2.13;;;1.70;;
16531;SDS011;66872;63.142;14.482;2023-08-06T10:26:27;2.77;;;1.60;;
16531;SDS011;66872;63.142;14.482;2023-08-06T10:28:54;1.80;;;1.63;;
16531;SDS011;66872;63.142;14.482;2023-08-06T10:31:20;1.93;;;1.80;;
16531;SDS011;66872;63.142;14.482;2023-08-06T10:34:04;2.13;;;1.93;;
16531;SDS011;66872;63.142;14.482;2023-08-06T10:36:30;2.37;;;1.70;;
16531;SDS011;66872;63.142;14.482;2023-08-06T10:38:58;2.00;;;1.50;;
16531;SDS011;66872;63.142;14.482;2023-08-06T10:44:04;2.57;;;1.47;;
16531;SDS011;66872;63.142;14.482;2023-08-06T10:46:34;2.33;;;1.70;;
16531;SDS011;66872;63.142;14.482;2023-08-06T10:49:00;1.70;;;1.60;;
16531;SDS011;66872;63.142;14.482;2023-08-06T10:51:27;1.97;;;1.67;;
16531;SDS011;66872;63.142;14.482;2023-08-06T10:53:53;1.60;;;1.50;;
16531;SDS011;66872;63.142;14.482;2023-08-06T10:56:22;2.20;;;1.40;;
16531;SDS011;66872;63.142;14.482;2023-08-06T10:58:51;1.87;;;1.70;;
16531;SDS011;66872;63.142;14.482;2023-08-06T11:01:19;1.70;;;1.60;;
16531;SDS011;66872;63.142;14.482;2023-08-06T11:03:46;1.60;;;1.50;;
16531;SDS011;66872;63.142;14.482;2023-08-06T11:06:17;1.50;;;1.40;;
16531;SDS011;66872;63.142;14.482;2023-08-06T11:08:49;1.60;;;1.50;;
16531;SDS011;66872;63.142;14.482;2023-08-06T11:11:16;1.63;;;1.30;;
16531;SDS011;66872;63.142;14.482;2023-08-06T11:13:43;1.80;;;1.40;;
16531;SDS011;66872;63.142;14.482;2023-08-06T11:16:13;2.70;;;1.50;;
16531;SDS011;66872;63.142;14.482;2023-08-06T11:18:43;1.60;;;1.50;;
16531;SDS011;66872;63.142;14.482;2023-08-06T11:21:09;1.50;;;1.40;;
16531;SDS011;66872;63.142;14.482;2023-08-06T11:23:36;1.40;;;1.30;;
16531;SDS011;66872;63.142;14.482;2023-08-06T11:26:03;1.60;;;1.43;;
16531;SDS011;66872;63.142;14.482;2023-08-06T11:28:29;1.70;;;1.60;;
16531;SDS011;66872;63.142;14.482;2023-08-06T11:30:54;1.83;;;1.43;;
16531;SDS011;66872;63.142;14.482;2023-08-06T11:33:25;1.33;;;1.23;;
16531;SDS011;66872;63.142;14.482;2023-08-06T11:35:51;1.93;;;1.50;;
16531;SDS011;66872;63.142;14.482;2023-08-06T11:38:18;1.40;;;1.30;;
16531;SDS011;66872;63.142;14.482;2023-08-06T11:40:44;1.60;;;1.50;;
16531;SDS011;66872;63.142;14.482;2023-08-06T11:43:10;1.60;;;1.50;;
16531;SDS011;66872;63.142;14.482;2023-08-06T11:45:38;1.57;;;1.47;;
16531;SDS011;66872;63.142;14.482;2023-08-06T11:48:03;1.40;;;1.30;;
16531;SDS011;66872;63.142;14.482;2023-08-06T11:50:30;1.57;;;1.47;;
16531;SDS011;66872;63.142;14.482;2023-08-06T11:52:56;2.27;;;1.40;;
16531;SDS011;66872;63.142;14.482;2023-08-06T11:55:23;1.93;;;1.40;;
16531;SDS011;66872;63.142;14.482;2023-08-06T11:57:50;1.40;;;1.30;;
16531;SDS011;66872;63.142;14.482;2023-08-06T12:00:16;1.50;;;1.40;;
16531;SDS011;66872;63.142;14.482;2023-08-06T12:02:43;1.40;;;1.30;;
16531;SDS011;66872;63.142;14.482;2023-08-06T12:05:13;1.60;;;1.50;;
16531;SDS011;66872;63.142;14.482;2023-08-06T12:10:15;1.40;;;1.30;;
16531;SDS011;66872;63.142;14.482;2023-08-06T12:12:42;1.30;;;1.20;;
16531;SDS011;66872;63.142;14.482;2023-08-06T12:15:08;1.30;;;1.20;;
16531;SDS011;66872;63.142;14.482;2023-08-06T12:17:35;1.50;;;1.40;;
16531;SDS011;66872;63.142;14.482;2023-08-06T12:20:01;1.40;;;1.30;;
16531;SDS011;66872;63.142;14.482;2023-08-06T12:22:29;1.30;;;1.20;;
16531;SDS011;66872;63.142;14.482;2023-08-06T12:24:59;2.00;;;1.40;;
16531;SDS011;66872;63.142;14.482;2023-08-06T12:27:26;1.40;;;1.30;;
16531;SDS011;66872;63.142;14.482;2023-08-06T12:29:51;1.30;;;1.20;;
16531;SDS011;66872;63.142;14.482;2023-08-06T12:32:17;1.73;;;1.40;;
16531;SDS011;66872;63.142;14.482;2023-08-06T12:34:44;1.50;;;1.40;;
16531;SDS011;66872;63.142;14.482;2023-08-06T12:37:09;2.30;;;1.40;;
16531;SDS011;66872;63.142;14.482;2023-08-06T12:39:36;1.40;;;1.30;;
16531;SDS011;66872;63.142;14.482;2023-08-06T12:42:02;1.50;;;1.40;;
16531;SDS011;66872;63.142;14.482;2023-08-06T12:44:30;1.37;;;1.27;;
16531;SDS011;66872;63.142;14.482;2023-08-06T12:46:56;1.50;;;1.40;;
16531;SDS011;66872;63.142;14.482;2023-08-06T12:49:22;1.33;;;1.23;;
16531;SDS011;66872;63.142;14.482;2023-08-06T12:51:48;1.37;;;1.27;;
16531;SDS011;66872;63.142;14.482;2023-08-06T12:54:18;1.30;;;1.20;;
16531;SDS011;66872;63.142;14.482;2023-08-06T12:56:45;1.47;;;1.33;;
16531;SDS011;66872;63.142;14.482;2023-08-06T12:59:12;2.47;;;1.30;;
16531;SDS011;66872;63.142;14.482;2023-08-06T13:01:41;1.60;;;1.50;;
16531;SDS011;66872;63.142;14.482;2023-08-06T13:04:07;1.30;;;1.20;;
16531;SDS011;66872;63.142;14.482;2023-08-06T13:06:33;1.50;;;1.40;;
16531;SDS011;66872;63.142;14.482;2023-08-06T13:09:04;1.40;;;1.30;;
16531;SDS011;66872;63.142;14.482;2023-08-06T13:11:32;3.40;;;1.50;;
16531;SDS011;66872;63.142;14.482;2023-08-06T13:14:19;1.60;;;1.30;;
16531;SDS011;66872;63.142;14.482;2023-08-06T13:16:44;1.40;;;1.30;;
16531;SDS011;66872;63.142;14.482;2023-08-06T13:19:10;1.30;;;1.20;;
16531;SDS011;66872;63.142;14.482;2023-08-06T13:24:07;1.50;;;1.40;;
16531;SDS011;66872;63.142;14.482;2023-08-06T13:26:33;1.50;;;1.40;;
16531;SDS011;66872;63.142;14.482;2023-08-06T13:28:59;1.40;;;1.30;;
16531;SDS011;66872;63.142;14.482;2023-08-06T13:31:26;1.73;;;1.60;;
16531;SDS011;66872;63.142;14.482;2023-08-06T13:33:53;2.40;;;1.30;;
16531;SDS011;66872;63.142;14.482;2023-08-06T13:36:20;1.57;;;1.47;;
16531;SDS011;66872;63.142;14.482;2023-08-06T13:38:47;1.40;;;1.30;;
16531;SDS011;66872;63.142;14.482;2023-08-06T13:41:12;2.57;;;1.70;;
16531;SDS011;66872;63.142;14.482;2023-08-06T13:43:38;2.43;;;1.60;;
16531;SDS011;66872;63.142;14.482;2023-08-06T13:46:04;2.47;;;1.67;;
16531;SDS011;66872;63.142;14.482;2023-08-06T13:48:30;2.03;;;1.70;;
16531;SDS011;66872;63.142;14.482;2023-08-06T13:50:56;2.67;;;2.30;;
16531;SDS011;66872;63.142;14.482;2023-08-06T13:53:21;2.37;;;1.80;;
16531;SDS011;66872;63.142;14.482;2023-08-06T13:55:47;3.67;;;2.17;;
16531;SDS011;66872;63.142;14.482;2023-08-06T13:58:13;3.83;;;2.33;;
16531;SDS011;66872;63.142;14.482;2023-08-06T14:00:38;3.43;;;2.20;;
16531;SDS011;66872;63.142;14.482;2023-08-06T14:03:04;5.27;;;2.53;;
16531;SDS011;66872;63.142;14.482;2023-08-06T14:05:30;4.17;;;2.23;;
16531;SDS011;66872;63.142;14.482;2023-08-06T14:07:55;4.73;;;2.50;;
16531;SDS011;66872;63.142;14.482;2023-08-06T14:10:21;3.90;;;2.30;;
16531;SDS011;66872;63.142;14.482;2023-08-06T14:12:46;5.13;;;2.50;;
16531;SDS011;66872;63.142;14.482;2023-08-06T14:15:12;3.00;;;2.20;;
16531;SDS011;66872;63.142;14.482;2023-08-06T14:17:38;3.80;;;2.17;;
16531;SDS011;66872;63.142;14.482;2023-08-06T14:20:05;4.07;;;2.43;;
16531;SDS011;66872;63.142;14.482;2023-08-06T14:22:33;3.20;;;2.27;;
16531;SDS011;66872;63.142;14.482;2023-08-06T14:24:59;3.10;;;2.20;;
16531;SDS011;66872;63.142;14.482;2023-08-06T14:27:24;3.67;;;2.30;;
16531;SDS011;66872;63.142;14.482;2023-08-06T14:29:50;4.77;;;2.50;;
16531;SDS011;66872;63.142;14.482;2023-08-06T14:32:16;4.17;;;2.60;;
16531;SDS011;66872;63.142;14.482;2023-08-06T14:34:45;4.17;;;2.77;;
16531;SDS011;66872;63.142;14.482;2023-08-06T14:37:10;4.13;;;2.80;;
16531;SDS011;66872;63.142;14.482;2023-08-06T14:39:36;5.70;;;2.43;;
16531;SDS011;66872;63.142;14.482;2023-08-06T14:42:03;4.80;;;2.40;;
16531;SDS011;66872;63.142;14.482;2023-08-06T14:44:29;4.70;;;2.40;;